sensor_id;sensor_type;location;lat;lon;timestamp;P1;P2;P0
12246;PMS7003;6186;52.022;4.692;2024-01-11T00:02:12;9.00;8.33;4.00
12246;PMS7003;6186;52.022;4.692;2024-01-11T00:04:37;7.00;7.00;3.00
12246;PMS7003;6186;52.022;4.692;2024-01-11T00:07:02;7.67;7.00;4.00
12246;PMS7003;6186;52.022;4.692;2024-01-11T00:09:28;10.67;10.00;4.00
12246;PMS7003;6186;52.022;4.692;2024-01-11T00:11:53;11.33;8.33;4.00
12246;PMS7003;6186;52.022;4.692;2024-01-11T00:14:18;9.00;7.00;3.00
12246;PMS7003;6186;52.022;4.692;2024-01-11T00:16:43;10.67;8.33;3.33
12246;PMS7003;6186;52.022;4.692;2024-01-11T00:19:08;10.00;10.00;6.00
12246;PMS7003;6186;52.022;4.692;2024-01-11T00:21:34;10.00;9.33;3.67
12246;PMS7003;6186;52.022;4.692;2024-01-11T00:23:59;13.00;10.00;4.00
12246;PMS7003;6186;52.022;4.692;2024-01-11T00:26:24;10.00;9.00;4.00
12246;PMS7003;6186;52.022;4.692;2024-01-11T00:28:49;10.00;9.00;4.00
12246;PMS7003;6186;52.022;4.692;2024-01-11T00:31:15;12.00;9.00;4.00
12246;PMS7003;6186;52.022;4.692;2024-01-11T00:33:40;10.00;9.67;4.67
12246;PMS7003;6186;52.022;4.692;2024-01-11T00:42:26;13.25;10.50;4.00
12246;PMS7003;6186;52.022;4.692;2024-01-11T00:44:51;10.50;10.00;3.00
12246;PMS7003;6186;52.022;4.692;2024-01-11T00:47:17;10.33;8.67;4.00
12246;PMS7003;6186;52.022;4.692;2024-01-11T00:49:42;12.00;10.00;3.33
12246;PMS7003;6186;52.022;4.692;2024-01-11T00:52:07;9.67;6.67;3.00
12246;PMS7003;6186;52.022;4.692;2024-01-11T00:54:32;11.33;10.00;6.00
12246;PMS7003;6186;52.022;4.692;2024-01-11T00:56:58;10.00;7.00;3.33
12246;PMS7003;6186;52.022;4.692;2024-01-11T00:59:23;13.00;12.00;6.00
12246;PMS7003;6186;52.022;4.692;2024-01-11T01:01:49;14.00;11.00;5.33
12246;PMS7003;6186;52.022;4.692;2024-01-11T01:04:14;6.50;6.50;3.00
12246;PMS7003;6186;52.022;4.692;2024-01-11T01:06:40;12.00;10.00;4.00
12246;PMS7003;6186;52.022;4.692;2024-01-11T01:09:06;9.00;7.00;3.00
12246;PMS7003;6186;52.022;4.692;2024-01-11T01:11:31;10.00;9.00;4.00
12246;PMS7003;6186;52.022;4.692;2024-01-11T01:13:57;9.33;8.33;4.00
12246;PMS7003;6186;52.022;4.692;2024-01-11T01:16:22;10.00;10.00;6.00
12246;PMS7003;6186;52.022;4.692;2024-01-11T01:18:47;9.00;9.00;4.00
12246;PMS7003;6186;52.022;4.692;2024-01-11T01:21:12;11.33;9.33;4.67
12246;PMS7003;6186;52.022;4.692;2024-01-11T01:23:38;11.33;11.33;6.00
12246;PMS7003;6186;52.022;4.692;2024-01-11T01:26:03;9.33;7.67;3.33
12246;PMS7003;6186;52.022;4.692;2024-01-11T01:28:28;11.33;10.00;5.33
12246;PMS7003;6186;52.022;4.692;2024-01-11T01:30:53;7.67;6.67;3.00
12246;PMS7003;6186;52.022;4.692;2024-01-11T01:33:18;9.67;8.33;3.00
12246;PMS7003;6186;52.022;4.692;2024-01-11T01:35:44;10.00;9.00;4.00
12246;PMS7003;6186;52.022;4.692;2024-01-11T01:38:09;12.00;10.67;4.67
12246;PMS7003;6186;52.022;4.692;2024-01-11T01:40:34;13.00;10.00;4.00
12246;PMS7003;6186;52.022;4.692;2024-01-11T01:42:59;12.00;12.00;4.00
12246;PMS7003;6186;52.022;4.692;2024-01-11T01:45:25;11.67;10.67;4.00
12246;PMS7003;6186;52.022;4.692;2024-01-11T01:47:50;10.00;9.00;4.00
12246;PMS7003;6186;52.022;4.692;2024-01-11T01:50:15;10.67;9.67;4.00
12246;PMS7003;6186;52.022;4.692;2024-01-11T01:52:41;12.75;9.50;4.00
12246;PMS7003;6186;52.022;4.692;2024-01-11T01:55:08;10.00;9.00;3.00
12246;PMS7003;6186;52.022;4.692;2024-01-11T01:57:34;9.50;7.50;4.00
12246;PMS7003;6186;52.022;4.692;2024-01-11T02:00:01;7.50;7.50;4.00
12246;PMS7003;6186;52.022;4.692;2024-01-11T02:02:27;9.75;8.50;5.50
12246;PMS7003;6186;52.022;4.692;2024-01-11T02:04:53;9.00;9.00;4.00
12246;PMS7003;6186;52.022;4.692;2024-01-11T02:07:19;9.33;9.33;4.67
12246;PMS7003;6186;52.022;4.692;2024-01-11T02:09:44;9.00;9.00;4.00
12246;PMS7003;6186;52.022;4.692;2024-01-11T02:12:10;12.00;10.00;4.00
12246;PMS7003;6186;52.022;4.692;2024-01-11T02:14:36;10.33;10.33;6.00
12246;PMS7003;6186;52.022;4.692;2024-01-11T02:17:02;9.50;9.25;6.00
12246;PMS7003;6186;52.022;4.692;2024-01-11T02:19:27;9.00;9.00;3.33
12246;PMS7003;6186;52.022;4.692;2024-01-11T02:21:53;11.33;10.00;4.00
12246;PMS7003;6186;52.022;4.692;2024-01-11T02:24:19;11.50;11.00;4.00
12246;PMS7003;6186;52.022;4.692;2024-01-11T02:27:03;12.00;10.00;6.00
12246;PMS7003;6186;52.022;4.692;2024-01-11T02:29:29;10.00;9.00;4.00
12246;PMS7003;6186;52.022;4.692;2024-01-11T02:31:56;9.00;7.50;3.25
12246;PMS7003;6186;52.022;4.692;2024-01-11T02:34:22;16.00;13.00;5.00
12246;PMS7003;6186;52.022;4.692;2024-01-11T02:36:49;10.67;9.67;4.00
12246;PMS7003;6186;52.022;4.692;2024-01-11T02:39:15;11.67;10.67;4.67
12246;PMS7003;6186;52.022;4.692;2024-01-11T02:41:43;10.50;9.00;4.00
12246;PMS7003;6186;52.022;4.692;2024-01-11T02:44:09;12.33;10.67;6.00
12246;PMS7003;6186;52.022;4.692;2024-01-11T02:46:34;12.33;11.00;6.00
12246;PMS7003;6186;52.022;4.692;2024-01-11T02:48:59;10.33;9.67;6.00
12246;PMS7003;6186;52.022;4.692;2024-01-11T02:51:24;15.00;11.00;5.33
12246;PMS7003;6186;52.022;4.692;2024-01-11T02:53:50;13.00;9.33;4.67
12246;PMS7003;6186;52.022;4.692;2024-01-11T02:56:15;10.67;9.00;4.00
12246;PMS7003;6186;52.022;4.692;2024-01-11T02:58:40;12.00;11.33;6.00
12246;PMS7003;6186;52.022;4.692;2024-01-11T03:01:05;9.00;9.00;4.00
12246;PMS7003;6186;52.022;4.692;2024-01-11T03:03:31;14.00;12.33;6.33
12246;PMS7003;6186;52.022;4.692;2024-01-11T03:05:56;7.00;7.00;4.00
12246;PMS7003;6186;52.022;4.692;2024-01-11T03:08:21;9.33;9.33;6.00
12246;PMS7003;6186;52.022;4.692;2024-01-11T03:10:46;12.00;12.00;6.00
12246;PMS7003;6186;52.022;4.692;2024-01-11T03:13:11;12.67;12.33;6.00
12246;PMS7003;6186;52.022;4.692;2024-01-11T03:15:37;12.00;12.00;6.00
12246;PMS7003;6186;52.022;4.692;2024-01-11T03:18:02;17.00;12.00;7.00
12246;PMS7003;6186;52.022;4.692;2024-01-11T03:20:27;12.00;10.67;5.33
12246;PMS7003;6186;52.022;4.692;2024-01-11T03:22:53;9.33;9.33;4.67
12246;PMS7003;6186;52.022;4.692;2024-01-11T03:25:18;13.67;11.67;4.67
12246;PMS7003;6186;52.022;4.692;2024-01-11T03:27:43;14.33;13.00;6.00
12246;PMS7003;6186;52.022;4.692;2024-01-11T03:30:09;13.67;12.33;5.33
12246;PMS7003;6186;52.022;4.692;2024-01-11T03:32:34;13.00;12.00;6.00
12246;PMS7003;6186;52.022;4.692;2024-01-11T03:35:00;10.00;10.00;6.00
12246;PMS7003;6186;52.022;4.692;2024-01-11T03:37:25;10.00;9.33;4.00
12246;PMS7003;6186;52.022;4.692;2024-01-11T03:39:50;13.67;12.67;6.00
12246;PMS7003;6186;52.022;4.692;2024-01-11T03:42:15;11.33;9.67;5.33
12246;PMS7003;6186;52.022;4.692;2024-01-11T03:44:40;12.00;10.00;6.00
12246;PMS7003;6186;52.022;4.692;2024-01-11T03:47:06;10.00;9.00;4.00
12246;PMS7003;6186;52.022;4.692;2024-01-11T03:49:31;11.33;10.00;6.00
12246;PMS7003;6186;52.022;4.692;2024-01-11T03:51:56;13.00;12.33;5.33
12246;PMS7003;6186;52.022;4.692;2024-01-11T03:54:21;10.00;10.00;6.00
12246;PMS7003;6186;52.022;4.692;2024-01-11T03:56:46;12.00;12.00;6.00
12246;PMS7003;6186;52.022;4.692;2024-01-11T03:59:12;12.00;12.00;6.33
12246;PMS7003;6186;52.022;4.692;2024-01-11T04:01:40;11.33;10.00;5.33
12246;PMS7003;6186;52.022;4.692;2024-01-11T04:04:06;15.25;12.00;6.25
12246;PMS7003;6186;52.022;4.692;2024-01-11T04:06:31;13.00;12.00;6.67
12246;PMS7003;6186;52.022;4.692;2024-01-11T04:08:56;13.00;11.33;5.33
12246;PMS7003;6186;52.022;4.692;2024-01-11T04:11:22;14.33;13.00;6.00
12246;PMS7003;6186;52.022;4.692;2024-01-11T04:13:47;15.67;10.67;4.00
12246;PMS7003;6186;52.022;4.692;2024-01-11T04:16:12;16.67;10.67;6.00
12246;PMS7003;6186;52.022;4.692;2024-01-11T04:18:38;14.33;11.33;5.33
12246;PMS7003;6186;52.022;4.692;2024-01-11T04:21:03;13.67;12.33;6.33
12246;PMS7003;6186;52.022;4.692;2024-01-11T04:23:28;13.00;12.00;6.00
12246;PMS7003;6186;52.022;4.692;2024-01-11T04:25:54;14.67;12.67;6.67
12246;PMS7003;6186;52.022;4.692;2024-01-11T04:28:19;15.00;13.00;6.67
12246;PMS7003;6186;52.022;4.692;2024-01-11T04:30:44;12.00;10.67;5.33
12246;PMS7003;6186;52.022;4.692;2024-01-11T04:33:09;16.00;13.00;7.00
12246;PMS7003;6186;52.022;4.692;2024-01-11T04:35:35;18.00;15.00;7.00
12246;PMS7003;6186;52.022;4.692;2024-01-11T04:38:00;15.00;13.00;6.00
12246;PMS7003;6186;52.022;4.692;2024-01-11T04:40:26;15.67;13.00;6.00
12246;PMS7003;6186;52.022;4.692;2024-01-11T04:42:51;12.00;12.00;6.67
12246;PMS7003;6186;52.022;4.692;2024-01-11T04:45:16;18.67;15.33;7.00
12246;PMS7003;6186;52.022;4.692;2024-01-11T04:47:41;15.00;13.67;7.00
12246;PMS7003;6186;52.022;4.692;2024-01-11T04:50:07;18.67;15.00;7.00
12246;PMS7003;6186;52.022;4.692;2024-01-11T04:52:32;18.67;14.33;7.00
12246;PMS7003;6186;52.022;4.692;2024-01-11T04:54:57;20.00;16.67;9.00
12246;PMS7003;6186;52.022;4.692;2024-01-11T04:57:23;15.33;15.00;6.33
12246;PMS7003;6186;52.022;4.692;2024-01-11T04:59:48;15.67;13.00;6.33
12246;PMS7003;6186;52.022;4.692;2024-01-11T05:02:13;19.67;15.00;7.00
12246;PMS7003;6186;52.022;4.692;2024-01-11T05:04:38;19.67;16.00;9.00
12246;PMS7003;6186;52.022;4.692;2024-01-11T05:07:03;17.33;14.33;6.67
12246;PMS7003;6186;52.022;4.692;2024-01-11T05:09:29;19.33;18.00;9.00
12246;PMS7003;6186;52.022;4.692;2024-01-11T05:11:54;17.33;15.67;8.33
12246;PMS7003;6186;52.022;4.692;2024-01-11T05:14:19;13.00;12.67;7.00
12246;PMS7003;6186;52.022;4.692;2024-01-11T05:16:44;14.67;14.67;5.33
12246;PMS7003;6186;52.022;4.692;2024-01-11T05:19:09;18.00;16.33;7.00
12246;PMS7003;6186;52.022;4.692;2024-01-11T05:21:35;19.67;16.67;7.00
12246;PMS7003;6186;52.022;4.692;2024-01-11T05:24:00;18.00;15.67;9.00
12246;PMS7003;6186;52.022;4.692;2024-01-11T05:26:25;16.67;14.33;9.00
12246;PMS7003;6186;52.022;4.692;2024-01-11T05:28:50;19.33;15.00;8.33
12246;PMS7003;6186;52.022;4.692;2024-01-11T05:31:16;19.00;16.00;9.33
12246;PMS7003;6186;52.022;4.692;2024-01-11T05:33:41;18.33;15.67;8.33
12246;PMS7003;6186;52.022;4.692;2024-01-11T05:36:07;17.33;15.00;9.00
12246;PMS7003;6186;52.022;4.692;2024-01-11T05:38:32;18.33;16.67;9.00
12246;PMS7003;6186;52.022;4.692;2024-01-11T05:40:58;20.50;16.50;8.00
12246;PMS7003;6186;52.022;4.692;2024-01-11T05:43:24;19.25;16.00;9.00
12246;PMS7003;6186;52.022;4.692;2024-01-11T05:45:49;18.00;18.00;9.33
12246;PMS7003;6186;52.022;4.692;2024-01-11T05:48:15;16.00;15.00;8.00
12246;PMS7003;6186;52.022;4.692;2024-01-11T05:50:41;18.25;14.00;8.00
12246;PMS7003;6186;52.022;4.692;2024-01-11T05:53:06;21.50;17.00;9.75
12246;PMS7003;6186;52.022;4.692;2024-01-11T05:55:32;18.00;15.00;9.00
12246;PMS7003;6186;52.022;4.692;2024-01-11T05:57:57;20.33;18.00;9.00
12246;PMS7003;6186;52.022;4.692;2024-01-11T06:00:22;21.67;15.00;7.00
12246;PMS7003;6186;52.022;4.692;2024-01-11T06:02:47;15.00;15.00;7.67
12246;PMS7003;6186;52.022;4.692;2024-01-11T06:05:12;18.67;15.67;9.00
12246;PMS7003;6186;52.022;4.692;2024-01-11T06:07:38;18.33;15.67;9.33
12246;PMS7003;6186;52.022;4.692;2024-01-11T06:10:04;25.33;18.00;9.67
12246;PMS7003;6186;52.022;4.692;2024-01-11T06:12:29;17.25;15.75;9.00
12246;PMS7003;6186;52.022;4.692;2024-01-11T06:14:54;18.33;16.00;9.00
12246;PMS7003;6186;52.022;4.692;2024-01-11T06:17:20;17.67;17.33;9.00
12246;PMS7003;6186;52.022;4.692;2024-01-11T06:19:45;18.00;15.67;6.67
12246;PMS7003;6186;52.022;4.692;2024-01-11T06:22:10;22.00;17.33;8.33
12246;PMS7003;6186;52.022;4.692;2024-01-11T06:24:35;17.33;14.33;8.33
12246;PMS7003;6186;52.022;4.692;2024-01-11T06:27:01;18.33;16.67;9.00
12246;PMS7003;6186;52.022;4.692;2024-01-11T06:29:26;13.67;13.67;8.33
12246;PMS7003;6186;52.022;4.692;2024-01-11T06:31:51;22.00;19.00;10.00
12246;PMS7003;6186;52.022;4.692;2024-01-11T06:34:16;19.00;16.00;9.00
12246;PMS7003;6186;52.022;4.692;2024-01-11T06:36:42;27.67;21.33;10.00
12246;PMS7003;6186;52.022;4.692;2024-01-11T06:39:07;18.67;15.00;7.00
12246;PMS7003;6186;52.022;4.692;2024-01-11T06:41:32;21.00;18.33;10.00
12246;PMS7003;6186;52.022;4.692;2024-01-11T06:43:57;20.00;18.00;10.00
12246;PMS7003;6186;52.022;4.692;2024-01-11T06:46:23;17.33;13.67;7.00
12246;PMS7003;6186;52.022;4.692;2024-01-11T06:48:48;16.00;15.00;9.00
12246;PMS7003;6186;52.022;4.692;2024-01-11T06:51:16;19.50;16.00;9.00
12246;PMS7003;6186;52.022;4.692;2024-01-11T06:53:46;24.00;18.25;9.50
12246;PMS7003;6186;52.022;4.692;2024-01-11T06:56:14;22.75;18.00;9.75
12246;PMS7003;6186;52.022;4.692;2024-01-11T06:58:44;16.25;15.25;9.00
12246;PMS7003;6186;52.022;4.692;2024-01-11T07:01:10;15.50;14.50;9.00
12246;PMS7003;6186;52.022;4.692;2024-01-11T07:03:35;17.33;15.00;8.33
12246;PMS7003;6186;52.022;4.692;2024-01-11T07:06:01;19.33;16.67;9.67
12246;PMS7003;6186;52.022;4.692;2024-01-11T07:08:26;22.00;19.00;10.00
12246;PMS7003;6186;52.022;4.692;2024-01-11T07:10:51;18.25;14.50;7.00
12246;PMS7003;6186;52.022;4.692;2024-01-11T07:13:16;21.25;15.25;7.00
12246;PMS7003;6186;52.022;4.692;2024-01-11T07:15:42;24.50;19.50;9.50
12246;PMS7003;6186;52.022;4.692;2024-01-11T07:18:08;20.50;15.50;7.00
12246;PMS7003;6186;52.022;4.692;2024-01-11T07:20:33;19.50;18.50;9.00
12246;PMS7003;6186;52.022;4.692;2024-01-11T07:22:58;18.25;17.00;8.50
12246;PMS7003;6186;52.022;4.692;2024-01-11T07:25:24;17.75;16.25;9.00
12246;PMS7003;6186;52.022;4.692;2024-01-11T07:27:49;21.00;18.25;9.25
12246;PMS7003;6186;52.022;4.692;2024-01-11T07:30:14;20.50;18.00;9.00
12246;PMS7003;6186;52.022;4.692;2024-01-11T07:32:40;21.75;20.00;9.25
12246;PMS7003;6186;52.022;4.692;2024-01-11T07:35:05;20.25;16.00;9.00
12246;PMS7003;6186;52.022;4.692;2024-01-11T07:37:31;21.25;18.25;10.00
12246;PMS7003;6186;52.022;4.692;2024-01-11T07:39:56;19.50;18.50;10.00
12246;PMS7003;6186;52.022;4.692;2024-01-11T07:42:21;18.25;16.50;9.25
12246;PMS7003;6186;52.022;4.692;2024-01-11T07:44:46;20.25;18.50;9.00
12246;PMS7003;6186;52.022;4.692;2024-01-11T07:47:11;19.67;16.67;9.00
12246;PMS7003;6186;52.022;4.692;2024-01-11T07:49:37;24.25;20.50;10.50
12246;PMS7003;6186;52.022;4.692;2024-01-11T07:52:02;19.25;17.00;9.75
12246;PMS7003;6186;52.022;4.692;2024-01-11T07:54:27;23.33;19.00;9.00
12246;PMS7003;6186;52.022;4.692;2024-01-11T07:56:53;25.33;20.33;10.00
12246;PMS7003;6186;52.022;4.692;2024-01-11T07:59:18;22.67;16.33;9.00
12246;PMS7003;6186;52.022;4.692;2024-01-11T08:01:43;19.00;18.00;10.00
12246;PMS7003;6186;52.022;4.692;2024-01-11T08:04:08;19.67;18.00;10.00
12246;PMS7003;6186;52.022;4.692;2024-01-11T08:06:34;19.00;18.00;9.00
12246;PMS7003;6186;52.022;4.692;2024-01-11T08:08:59;19.67;18.00;8.33
12246;PMS7003;6186;52.022;4.692;2024-01-11T08:11:24;20.33;16.00;9.00
12246;PMS7003;6186;52.022;4.692;2024-01-11T08:13:49;17.33;16.00;9.00
12246;PMS7003;6186;52.022;4.692;2024-01-11T08:16:18;24.33;21.67;12.00
12246;PMS7003;6186;52.022;4.692;2024-01-11T08:18:43;22.00;16.00;9.00
12246;PMS7003;6186;52.022;4.692;2024-01-11T08:21:08;20.67;18.00;9.00
12246;PMS7003;6186;52.022;4.692;2024-01-11T08:23:33;18.33;18.33;10.00
12246;PMS7003;6186;52.022;4.692;2024-01-11T08:25:59;24.33;19.67;10.67
12246;PMS7003;6186;52.022;4.692;2024-01-11T08:28:24;21.67;19.67;10.00
12246;PMS7003;6186;52.022;4.692;2024-01-11T08:30:49;25.00;21.00;10.00
12246;PMS7003;6186;52.022;4.692;2024-01-11T08:33:14;24.00;17.33;9.33
12246;PMS7003;6186;52.022;4.692;2024-01-11T08:35:39;23.00;20.67;9.67
12246;PMS7003;6186;52.022;4.692;2024-01-11T08:38:05;19.67;18.33;9.33
12246;PMS7003;6186;52.022;4.692;2024-01-11T08:40:30;21.00;18.33;10.67
12246;PMS7003;6186;52.022;4.692;2024-01-11T08:42:55;20.33;18.33;10.00
12246;PMS7003;6186;52.022;4.692;2024-01-11T08:45:20;19.00;18.00;9.67
12246;PMS7003;6186;52.022;4.692;2024-01-11T08:47:45;20.33;18.00;10.00
12246;PMS7003;6186;52.022;4.692;2024-01-11T08:50:14;28.33;19.67;11.33
12246;PMS7003;6186;52.022;4.692;2024-01-11T08:52:40;20.50;20.00;10.00
12246;PMS7003;6186;52.022;4.692;2024-01-11T08:55:06;21.50;19.00;10.00
12246;PMS7003;6186;52.022;4.692;2024-01-11T08:57:32;30.33;22.00;10.00
12246;PMS7003;6186;52.022;4.692;2024-01-11T08:59:57;22.00;19.67;10.00
12246;PMS7003;6186;52.022;4.692;2024-01-11T09:02:22;21.67;19.67;10.67
12246;PMS7003;6186;52.022;4.692;2024-01-11T09:04:47;28.67;22.67;13.00
12246;PMS7003;6186;52.022;4.692;2024-01-11T09:07:13;17.67;17.33;10.67
12246;PMS7003;6186;52.022;4.692;2024-01-11T09:09:38;25.00;20.00;12.00
12246;PMS7003;6186;52.022;4.692;2024-01-11T09:12:04;32.00;23.75;11.50
12246;PMS7003;6186;52.022;4.692;2024-01-11T09:14:30;28.00;22.00;12.00
12246;PMS7003;6186;52.022;4.692;2024-01-11T09:16:55;29.00;24.67;12.00
12246;PMS7003;6186;52.022;4.692;2024-01-11T09:19:20;25.00;23.00;14.33
12246;PMS7003;6186;52.022;4.692;2024-01-11T09:21:45;19.67;17.33;12.00
12246;PMS7003;6186;52.022;4.692;2024-01-11T09:24:10;20.33;19.00;10.00
12246;PMS7003;6186;52.022;4.692;2024-01-11T09:26:36;21.67;21.00;9.67
12246;PMS7003;6186;52.022;4.692;2024-01-11T09:29:01;27.00;21.67;12.00
12246;PMS7003;6186;52.022;4.692;2024-01-11T09:31:27;24.00;21.33;12.00
12246;PMS7003;6186;52.022;4.692;2024-01-11T09:33:52;32.33;22.00;13.00
12246;PMS7003;6186;52.022;4.692;2024-01-11T09:36:17;24.00;21.67;12.67
12246;PMS7003;6186;52.022;4.692;2024-01-11T09:38:42;21.33;17.33;9.67
12246;PMS7003;6186;52.022;4.692;2024-01-11T09:41:08;22.00;19.67;12.00
12246;PMS7003;6186;52.022;4.692;2024-01-11T09:43:35;21.25;18.50;10.00
12246;PMS7003;6186;52.022;4.692;2024-01-11T09:46:04;18.75;16.00;9.50
12246;PMS7003;6186;52.022;4.692;2024-01-11T09:48:40;25.75;19.50;9.75
12246;PMS7003;6186;52.022;4.692;2024-01-11T09:51:08;16.25;15.00;8.00
12246;PMS7003;6186;52.022;4.692;2024-01-11T09:53:35;18.00;15.00;8.50
12246;PMS7003;6186;52.022;4.692;2024-01-11T09:56:02;21.25;18.50;9.00
12246;PMS7003;6186;52.022;4.692;2024-01-11T09:58:32;19.00;18.50;10.50
12246;PMS7003;6186;52.022;4.692;2024-01-11T10:00:59;17.50;15.00;8.00
12246;PMS7003;6186;52.022;4.692;2024-01-11T10:03:25;15.00;13.67;7.00
12246;PMS7003;6186;52.022;4.692;2024-01-11T10:05:50;15.25;12.25;7.50
12246;PMS7003;6186;52.022;4.692;2024-01-11T10:08:21;24.00;17.00;9.50
12246;PMS7003;6186;52.022;4.692;2024-01-11T10:10:47;19.25;12.75;7.00
12246;PMS7003;6186;52.022;4.692;2024-01-11T10:13:12;20.33;18.00;9.00
12246;PMS7003;6186;52.022;4.692;2024-01-11T10:15:37;19.00;17.33;9.00
12246;PMS7003;6186;52.022;4.692;2024-01-11T10:18:03;15.67;15.33;7.67
12246;PMS7003;6186;52.022;4.692;2024-01-11T10:20:28;18.33;15.67;8.33
12246;PMS7003;6186;52.022;4.692;2024-01-11T10:22:53;15.33;15.00;7.67
12246;PMS7003;6186;52.022;4.692;2024-01-11T10:25:19;23.33;19.00;9.67
12246;PMS7003;6186;52.022;4.692;2024-01-11T10:27:44;16.00;13.00;7.00
12246;PMS7003;6186;52.022;4.692;2024-01-11T10:30:12;16.50;15.50;8.00
12246;PMS7003;6186;52.022;4.692;2024-01-11T10:32:38;18.75;16.00;9.00
12246;PMS7003;6186;52.022;4.692;2024-01-11T10:35:04;23.50;17.50;9.50
12246;PMS7003;6186;52.022;4.692;2024-01-11T10:37:30;21.00;17.00;7.67
12246;PMS7003;6186;52.022;4.692;2024-01-11T10:39:56;16.75;14.25;8.50
12246;PMS7003;6186;52.022;4.692;2024-01-11T10:42:23;19.25;16.50;7.50
12246;PMS7003;6186;52.022;4.692;2024-01-11T10:44:52;25.50;18.75;7.50
12246;PMS7003;6186;52.022;4.692;2024-01-11T10:47:20;17.00;15.75;7.75
12246;PMS7003;6186;52.022;4.692;2024-01-11T10:49:49;14.50;13.75;6.00
12246;PMS7003;6186;52.022;4.692;2024-01-11T10:52:16;17.25;16.50;7.50
12246;PMS7003;6186;52.022;4.692;2024-01-11T10:54:49;14.50;11.50;5.50
12246;PMS7003;6186;52.022;4.692;2024-01-11T10:57:15;13.00;10.33;5.33
12246;PMS7003;6186;52.022;4.692;2024-01-11T10:59:41;14.25;13.00;7.00
12246;PMS7003;6186;52.022;4.692;2024-01-11T11:02:07;18.75;13.00;6.25
12246;PMS7003;6186;52.022;4.692;2024-01-11T11:04:33;16.00;13.00;7.00
12246;PMS7003;6186;52.022;4.692;2024-01-11T11:07:01;17.25;13.25;6.75
12246;PMS7003;6186;52.022;4.692;2024-01-11T11:09:27;15.67;13.00;6.33
12246;PMS7003;6186;52.022;4.692;2024-01-11T11:11:56;17.75;12.25;5.50
12246;PMS7003;6186;52.022;4.692;2024-01-11T11:14:23;14.75;14.25;7.00
12246;PMS7003;6186;52.022;4.692;2024-01-11T11:16:49;13.00;11.25;6.50
12246;PMS7003;6186;52.022;4.692;2024-01-11T11:19:16;22.75;16.50;7.00
12246;PMS7003;6186;52.022;4.692;2024-01-11T11:21:43;13.25;11.50;5.50
12246;PMS7003;6186;52.022;4.692;2024-01-11T11:24:09;21.00;16.75;7.00
12246;PMS7003;6186;52.022;4.692;2024-01-11T11:26:34;13.33;11.00;7.00
12246;PMS7003;6186;52.022;4.692;2024-01-11T11:29:00;13.00;11.33;7.00
12246;PMS7003;6186;52.022;4.692;2024-01-11T11:31:42;18.00;13.75;8.25
12246;PMS7003;6186;52.022;4.692;2024-01-11T11:34:12;16.25;15.25;7.50
12246;PMS7003;6186;52.022;4.692;2024-01-11T11:36:39;16.25;15.25;7.00
12246;PMS7003;6186;52.022;4.692;2024-01-11T11:39:05;12.00;10.75;6.25
12246;PMS7003;6186;52.022;4.692;2024-01-11T11:41:31;17.00;15.67;7.67
12246;PMS7003;6186;52.022;4.692;2024-01-11T11:44:00;16.00;15.00;7.00
12246;PMS7003;6186;52.022;4.692;2024-01-11T11:46:26;18.25;13.00;5.50
12246;PMS7003;6186;52.022;4.692;2024-01-11T11:48:51;16.33;13.67;6.67
12246;PMS7003;6186;52.022;4.692;2024-01-11T11:51:18;17.25;14.25;7.00
12246;PMS7003;6186;52.022;4.692;2024-01-11T11:53:45;13.50;13.50;7.00
12246;PMS7003;6186;52.022;4.692;2024-01-11T11:56:11;14.00;13.00;5.50
12246;PMS7003;6186;52.022;4.692;2024-01-11T11:58:38;13.00;10.75;5.00
12246;PMS7003;6186;52.022;4.692;2024-01-11T12:01:03;13.00;11.00;5.00
12246;PMS7003;6186;52.022;4.692;2024-01-11T12:03:30;14.00;11.00;4.33
12246;PMS7003;6186;52.022;4.692;2024-01-11T12:05:57;13.00;10.50;4.25
12246;PMS7003;6186;52.022;4.692;2024-01-11T12:08:23;17.75;14.75;6.50
12246;PMS7003;6186;52.022;4.692;2024-01-11T12:10:48;15.33;13.00;7.00
12246;PMS7003;6186;52.022;4.692;2024-01-11T12:13:14;12.33;10.33;4.67
12246;PMS7003;6186;52.022;4.692;2024-01-11T12:15:40;11.25;10.50;5.00
12246;PMS7003;6186;52.022;4.692;2024-01-11T12:18:05;10.00;9.33;4.00
12246;PMS7003;6186;52.022;4.692;2024-01-11T12:20:31;9.33;9.33;4.00
12246;PMS7003;6186;52.022;4.692;2024-01-11T12:22:56;11.00;10.67;5.00
12246;PMS7003;6186;52.022;4.692;2024-01-11T12:25:23;10.25;9.75;4.25
12246;PMS7003;6186;52.022;4.692;2024-01-11T12:27:49;14.33;11.00;5.00
12246;PMS7003;6186;52.022;4.692;2024-01-11T12:30:16;13.67;10.00;4.67
12246;PMS7003;6186;52.022;4.692;2024-01-11T12:32:42;8.00;8.00;3.00
12246;PMS7003;6186;52.022;4.692;2024-01-11T12:35:08;10.75;7.75;4.25
12246;PMS7003;6186;52.022;4.692;2024-01-11T12:37:33;11.00;10.00;5.00
12246;PMS7003;6186;52.022;4.692;2024-01-11T12:39:59;8.67;8.67;4.00
12246;PMS7003;6186;52.022;4.692;2024-01-11T12:42:25;11.33;10.00;4.00
12246;PMS7003;6186;52.022;4.692;2024-01-11T12:44:53;14.00;11.00;5.00
12246;PMS7003;6186;52.022;4.692;2024-01-11T12:47:19;10.00;8.00;4.00
12246;PMS7003;6186;52.022;4.692;2024-01-11T12:49:47;13.33;10.67;4.67
12246;PMS7003;6186;52.022;4.692;2024-01-11T12:52:18;10.00;9.50;4.75
12246;PMS7003;6186;52.022;4.692;2024-01-11T12:54:44;12.50;10.75;5.00
12246;PMS7003;6186;52.022;4.692;2024-01-11T12:57:11;10.00;10.00;4.00
12246;PMS7003;6186;52.022;4.692;2024-01-11T12:59:45;11.67;10.67;5.00
12246;PMS7003;6186;52.022;4.692;2024-01-11T13:02:11;10.00;9.00;3.00
12246;PMS7003;6186;52.022;4.692;2024-01-11T13:04:36;11.00;8.00;3.33
12246;PMS7003;6186;52.022;4.692;2024-01-11T13:07:02;12.67;8.00;4.00
12246;PMS7003;6186;52.022;4.692;2024-01-11T13:09:27;10.00;10.00;4.00
12246;PMS7003;6186;52.022;4.692;2024-01-11T13:11:52;13.33;11.00;5.00
12246;PMS7003;6186;52.022;4.692;2024-01-11T13:14:17;8.67;8.00;4.00
12246;PMS7003;6186;52.022;4.692;2024-01-11T13:16:42;7.00;7.00;4.00
12246;PMS7003;6186;52.022;4.692;2024-01-11T13:19:08;9.33;7.67;4.00
12246;PMS7003;6186;52.022;4.692;2024-01-11T13:21:33;13.33;9.33;5.00
12246;PMS7003;6186;52.022;4.692;2024-01-11T13:23:58;9.33;9.33;4.33
12246;PMS7003;6186;52.022;4.692;2024-01-11T13:26:23;8.00;8.00;4.67
12246;PMS7003;6186;52.022;4.692;2024-01-11T13:28:48;7.67;7.00;4.00
12246;PMS7003;6186;52.022;4.692;2024-01-11T13:31:14;7.00;6.33;4.00
12246;PMS7003;6186;52.022;4.692;2024-01-11T13:33:39;10.00;8.67;4.00
12246;PMS7003;6186;52.022;4.692;2024-01-11T13:36:04;11.00;10.00;4.00
12246;PMS7003;6186;52.022;4.692;2024-01-11T13:38:30;11.00;10.25;4.75
12246;PMS7003;6186;52.022;4.692;2024-01-11T13:40:55;11.00;9.67;5.00
12246;PMS7003;6186;52.022;4.692;2024-01-11T13:43:20;14.00;11.00;5.00
12246;PMS7003;6186;52.022;4.692;2024-01-11T13:45:46;14.33;10.33;4.00
12246;PMS7003;6186;52.022;4.692;2024-01-11T13:48:11;12.67;10.33;4.33
12246;PMS7003;6186;52.022;4.692;2024-01-11T13:50:36;11.33;10.00;4.33
12246;PMS7003;6186;52.022;4.692;2024-01-11T13:53:01;8.00;7.67;4.00
12246;PMS7003;6186;52.022;4.692;2024-01-11T13:55:27;10.33;8.00;4.33
12246;PMS7003;6186;52.022;4.692;2024-01-11T13:57:52;11.67;10.33;4.67
12246;PMS7003;6186;52.022;4.692;2024-01-11T14:00:18;9.33;7.67;4.00
12246;PMS7003;6186;52.022;4.692;2024-01-11T14:02:43;10.67;8.67;4.00
12246;PMS7003;6186;52.022;4.692;2024-01-11T14:05:10;12.33;10.67;5.00
12246;PMS7003;6186;52.022;4.692;2024-01-11T14:07:36;7.50;7.00;4.00
12246;PMS7003;6186;52.022;4.692;2024-01-11T14:10:01;12.67;10.67;4.33
12246;PMS7003;6186;52.022;4.692;2024-01-11T14:12:26;11.00;10.00;4.00